sensor_id;sensor_type;location;lat;lon;timestamp;pressure;altitude;pressure_sealevel;temperature;humidity
5651;BME280;40241;52.684;9.758;2023-12-04T00:02:06;101626.50;;;-1.66;62.96
5651;BME280;40241;52.684;9.758;2023-12-04T00:04:31;101617.59;;;-1.67;63.24
5651;BME280;40241;52.684;9.758;2023-12-04T00:06:57;101627.59;;;-1.60;63.14
5651;BME280;40241;52.684;9.758;2023-12-04T00:09:22;101624.47;;;-1.59;63.15
5651;BME280;40241;52.684;9.758;2023-12-04T00:11:49;101625.25;;;-1.58;63.33
5651;BME280;40241;52.684;9.758;2023-12-04T00:14:15;101621.69;;;-1.55;63.31
5651;BME280;40241;52.684;9.758;2023-12-04T00:16:40;101618.53;;;-1.50;63.14
5651;BME280;40241;52.684;9.758;2023-12-04T00:19:06;101620.00;;;-1.46;63.12
5651;BME280;40241;52.684;9.758;2023-12-04T00:21:32;101607.59;;;-1.47;63.27
5651;BME280;40241;52.684;9.758;2023-12-04T00:23:57;101607.59;;;-1.47;62.91
5651;BME280;40241;52.684;9.758;2023-12-04T00:26:22;101606.09;;;-1.48;63.26
5651;BME280;40241;52.684;9.758;2023-12-04T00:28:48;101607.22;;;-1.45;63.26
5651;BME280;40241;52.684;9.758;2023-12-04T00:31:13;101602.53;;;-1.45;63.35
5651;BME280;40241;52.684;9.758;2023-12-04T00:33:38;101614.59;;;-1.46;63.23
5651;BME280;40241;52.684;9.758;2023-12-04T00:36:04;101619.19;;;-1.43;63.08
5651;BME280;40241;52.684;9.758;2023-12-04T00:38:29;101601.78;;;-1.45;63.16
5651;BME280;40241;52.684;9.758;2023-12-04T00:40:54;101598.72;;;-1.47;62.99
5651;BME280;40241;52.684;9.758;2023-12-04T00:43:20;101596.81;;;-1.50;63.30
5651;BME280;40241;52.684;9.758;2023-12-04T00:45:45;101588.69;;;-1.50;62.88
5651;BME280;40241;52.684;9.758;2023-12-04T00:48:10;101589.44;;;-1.50;63.00
5651;BME280;40241;52.684;9.758;2023-12-04T00:50:36;101575.47;;;-1.48;63.01
5651;BME280;40241;52.684;9.758;2023-12-04T00:53:01;101579.72;;;-1.47;63.31
5651;BME280;40241;52.684;9.758;2023-12-04T00:55:27;101573.09;;;-1.46;63.13
5651;BME280;40241;52.684;9.758;2023-12-04T00:57:52;101577.00;;;-1.47;63.34
5651;BME280;40241;52.684;9.758;2023-12-04T01:00:17;101570.75;;;-1.44;63.14
5651;BME280;40241;52.684;9.758;2023-12-04T01:02:43;101557.19;;;-1.44;63.40
5651;BME280;40241;52.684;9.758;2023-12-04T01:05:08;101548.69;;;-1.46;63.20
5651;BME280;40241;52.684;9.758;2023-12-04T01:07:34;101539.75;;;-1.47;63.04
5651;BME280;40241;52.684;9.758;2023-12-04T01:09:59;101539.41;;;-1.49;63.21
5651;BME280;40241;52.684;9.758;2023-12-04T01:12:24;101539.38;;;-1.45;63.44
5651;BME280;40241;52.684;9.758;2023-12-04T01:14:49;101538.59;;;-1.46;63.41
5651;BME280;40241;52.684;9.758;2023-12-04T01:17:15;101534.31;;;-1.43;63.26
5651;BME280;40241;52.684;9.758;2023-12-04T01:19:40;101524.56;;;-1.41;63.44
5651;BME280;40241;52.684;9.758;2023-12-04T01:22:05;101521.09;;;-1.41;63.26
5651;BME280;40241;52.684;9.758;2023-12-04T01:24:32;101529.16;;;-1.38;63.08
5651;BME280;40241;52.684;9.758;2023-12-04T01:26:57;101507.09;;;-1.40;63.17
5651;BME280;40241;52.684;9.758;2023-12-04T01:29:22;101510.59;;;-1.39;63.23
5651;BME280;40241;52.684;9.758;2023-12-04T01:31:48;101504.34;;;-1.36;63.19
5651;BME280;40241;52.684;9.758;2023-12-04T01:34:13;101517.06;;;-1.33;63.47
5651;BME280;40241;52.684;9.758;2023-12-04T01:36:42;101512.75;;;-1.31;63.28
5651;BME280;40241;52.684;9.758;2023-12-04T01:39:07;101502.31;;;-1.32;63.40
5651;BME280;40241;52.684;9.758;2023-12-04T01:41:33;101510.81;;;-1.30;63.24
5651;BME280;40241;52.684;9.758;2023-12-04T01:43:58;101486.38;;;-1.30;63.48
5651;BME280;40241;52.684;9.758;2023-12-04T01:46:23;101486.75;;;-1.28;63.61
5651;BME280;40241;52.684;9.758;2023-12-04T01:48:49;101475.81;;;-1.25;63.54
5651;BME280;40241;52.684;9.758;2023-12-04T01:51:17;101475.81;;;-1.25;63.42
5651;BME280;40241;52.684;9.758;2023-12-04T01:53:42;101466.84;;;-1.22;63.34
5651;BME280;40241;52.684;9.758;2023-12-04T01:56:08;101474.22;;;-1.22;63.54
5651;BME280;40241;52.684;9.758;2023-12-04T01:58:34;101472.28;;;-1.22;63.45
5651;BME280;40241;52.684;9.758;2023-12-04T02:01:00;101462.59;;;-1.23;63.30
5651;BME280;40241;52.684;9.758;2023-12-04T02:03:25;101469.09;;;-1.16;63.52
5651;BME280;40241;52.684;9.758;2023-12-04T02:05:51;101462.47;;;-1.15;63.41
5651;BME280;40241;52.684;9.758;2023-12-04T02:08:17;101459.66;;;-1.12;63.41
5651;BME280;40241;52.684;9.758;2023-12-04T02:10:43;101463.13;;;-1.08;63.61
5651;BME280;40241;52.684;9.758;2023-12-04T02:13:09;101466.56;;;-1.07;63.41
5651;BME280;40241;52.684;9.758;2023-12-04T02:15:35;101450.00;;;-1.13;63.33
5651;BME280;40241;52.684;9.758;2023-12-04T02:18:02;101460.88;;;-1.13;63.18
5651;BME280;40241;52.684;9.758;2023-12-04T02:20:32;101460.41;;;-1.08;63.34
5651;BME280;40241;52.684;9.758;2023-12-04T02:22:58;101451.00;;;-1.03;63.48
5651;BME280;40241;52.684;9.758;2023-12-04T02:25:23;101452.59;;;-1.06;63.36
5651;BME280;40241;52.684;9.758;2023-12-04T02:27:50;101459.50;;;-1.01;63.72
5651;BME280;40241;52.684;9.758;2023-12-04T02:30:18;101450.94;;;-1.00;63.57
5651;BME280;40241;52.684;9.758;2023-12-04T02:32:45;101443.13;;;-0.98;63.67
5651;BME280;40241;52.684;9.758;2023-12-04T02:35:13;101422.94;;;-0.97;63.73
5651;BME280;40241;52.684;9.758;2023-12-04T02:37:40;101424.03;;;-0.94;63.67
5651;BME280;40241;52.684;9.758;2023-12-04T02:40:06;101420.16;;;-0.93;63.61
5651;BME280;40241;52.684;9.758;2023-12-04T02:42:32;101412.81;;;-0.96;63.62
5651;BME280;40241;52.684;9.758;2023-12-04T02:44:57;101432.19;;;-0.94;63.57
5651;BME280;40241;52.684;9.758;2023-12-04T02:47:23;101418.59;;;-0.94;63.47
5651;BME280;40241;52.684;9.758;2023-12-04T02:49:48;101402.38;;;-0.98;63.57
5651;BME280;40241;52.684;9.758;2023-12-04T02:52:14;101420.16;;;-0.93;63.83
5651;BME280;40241;52.684;9.758;2023-12-04T02:54:39;101405.75;;;-0.90;63.99
5651;BME280;40241;52.684;9.758;2023-12-04T02:57:04;101409.91;;;-0.86;63.87
5651;BME280;40241;52.684;9.758;2023-12-04T02:59:30;101406.78;;;-0.84;63.38
5651;BME280;40241;52.684;9.758;2023-12-04T03:01:55;101402.47;;;-0.82;63.77
5651;BME280;40241;52.684;9.758;2023-12-04T03:04:20;101400.44;;;-0.78;63.64
5651;BME280;40241;52.684;9.758;2023-12-04T03:06:45;101406.22;;;-0.76;63.92
5651;BME280;40241;52.684;9.758;2023-12-04T03:09:11;101396.84;;;-0.75;63.67
5651;BME280;40241;52.684;9.758;2023-12-04T03:11:39;101391.44;;;-0.75;63.72
5651;BME280;40241;52.684;9.758;2023-12-04T03:14:04;101391.44;;;-0.75;63.74
5651;BME280;40241;52.684;9.758;2023-12-04T03:16:30;101384.03;;;-0.74;63.75
5651;BME280;40241;52.684;9.758;2023-12-04T03:18:55;101384.91;;;-0.77;63.79
5651;BME280;40241;52.684;9.758;2023-12-04T03:21:20;101384.81;;;-0.74;63.82
5651;BME280;40241;52.684;9.758;2023-12-04T03:23:46;101392.13;;;-0.71;63.96
5651;BME280;40241;52.684;9.758;2023-12-04T03:26:11;101385.44;;;-0.66;63.86
5651;BME280;40241;52.684;9.758;2023-12-04T03:28:38;101382.28;;;-0.65;63.66
5651;BME280;40241;52.684;9.758;2023-12-04T03:31:04;101370.56;;;-0.62;63.67
5651;BME280;40241;52.684;9.758;2023-12-04T03:33:29;101373.66;;;-0.60;63.75
5651;BME280;40241;52.684;9.758;2023-12-04T03:35:54;101366.34;;;-0.63;63.89
5651;BME280;40241;52.684;9.758;2023-12-04T03:38:19;101373.66;;;-0.60;63.62
5651;BME280;40241;52.684;9.758;2023-12-04T03:40:45;101375.16;;;-0.59;63.67
5651;BME280;40241;52.684;9.758;2023-12-04T03:43:10;101371.78;;;-0.63;63.62
5651;BME280;40241;52.684;9.758;2023-12-04T03:45:35;101371.34;;;-0.61;63.97
5651;BME280;40241;52.684;9.758;2023-12-04T03:48:01;101358.88;;;-0.59;63.87
5651;BME280;40241;52.684;9.758;2023-12-04T03:50:26;101356.50;;;-0.57;63.61
5651;BME280;40241;52.684;9.758;2023-12-04T03:52:51;101351.06;;;-0.57;63.68
5651;BME280;40241;52.684;9.758;2023-12-04T03:55:17;101340.53;;;-0.55;63.85
5651;BME280;40241;52.684;9.758;2023-12-04T03:57:45;101352.59;;;-0.56;63.75
5651;BME280;40241;52.684;9.758;2023-12-04T04:00:10;101337.81;;;-0.55;63.50
5651;BME280;40241;52.684;9.758;2023-12-04T04:02:36;101327.72;;;-0.54;63.65
5651;BME280;40241;52.684;9.758;2023-12-04T04:05:01;101333.06;;;-0.51;63.75
5651;BME280;40241;52.684;9.758;2023-12-04T04:07:27;101325.66;;;-0.50;63.94
5651;BME280;40241;52.684;9.758;2023-12-04T04:09:52;101347.41;;;-0.50;63.56
5651;BME280;40241;52.684;9.758;2023-12-04T04:12:17;101334.25;;;-0.52;63.70
5651;BME280;40241;52.684;9.758;2023-12-04T04:14:43;101332.31;;;-0.51;63.75
5651;BME280;40241;52.684;9.758;2023-12-04T04:17:08;101313.69;;;-0.53;63.76
5651;BME280;40241;52.684;9.758;2023-12-04T04:19:33;101320.31;;;-0.54;63.85
5651;BME280;40241;52.684;9.758;2023-12-04T04:21:59;101318.38;;;-0.53;63.83
5651;BME280;40241;52.684;9.758;2023-12-04T04:24:24;101318.38;;;-0.53;63.54
5651;BME280;40241;52.684;9.758;2023-12-04T04:26:49;101314.47;;;-0.52;63.62
5651;BME280;40241;52.684;9.758;2023-12-04T04:29:15;101307.56;;;-0.57;63.48
5651;BME280;40241;52.684;9.758;2023-12-04T04:31:40;101325.31;;;-0.52;63.92
5651;BME280;40241;52.684;9.758;2023-12-04T04:34:05;101306.31;;;-0.52;63.64
5651;BME280;40241;52.684;9.758;2023-12-04T04:36:30;101314.03;;;-0.51;63.87
5651;BME280;40241;52.684;9.758;2023-12-04T04:38:56;101301.66;;;-0.52;63.72
5651;BME280;40241;52.684;9.758;2023-12-04T04:41:21;101295.78;;;-0.50;64.21
5651;BME280;40241;52.684;9.758;2023-12-04T04:43:46;101298.50;;;-0.50;63.83
5651;BME280;40241;52.684;9.758;2023-12-04T04:46:12;101293.81;;;-0.50;63.83
5651;BME280;40241;52.684;9.758;2023-12-04T04:48:37;101288.81;;;-0.51;63.98
5651;BME280;40241;52.684;9.758;2023-12-04T04:51:03;101292.22;;;-0.47;63.69
5651;BME280;40241;52.684;9.758;2023-12-04T04:53:29;101285.25;;;-0.48;63.82
5651;BME280;40241;52.684;9.758;2023-12-04T04:55:54;101284.13;;;-0.51;63.69
5651;BME280;40241;52.684;9.758;2023-12-04T04:58:19;101291.00;;;-0.46;64.03
5651;BME280;40241;52.684;9.758;2023-12-04T05:00:45;101284.47;;;-0.49;63.84
5651;BME280;40241;52.684;9.758;2023-12-04T05:03:11;101286.34;;;-0.46;63.84
5651;BME280;40241;52.684;9.758;2023-12-04T05:05:36;101285.50;;;-0.42;63.86
5651;BME280;40241;52.684;9.758;2023-12-04T05:08:01;101269.19;;;-0.42;63.96
5651;BME280;40241;52.684;9.758;2023-12-04T05:10:27;101280.06;;;-0.42;63.83
5651;BME280;40241;52.684;9.758;2023-12-04T05:12:52;101270.72;;;-0.41;63.92
5651;BME280;40241;52.684;9.758;2023-12-04T05:15:17;101258.34;;;-0.42;63.75
5651;BME280;40241;52.684;9.758;2023-12-04T05:17:42;101275.75;;;-0.40;63.73
5651;BME280;40241;52.684;9.758;2023-12-04T05:20:08;101258.22;;;-0.39;63.91
5651;BME280;40241;52.684;9.758;2023-12-04T05:22:34;101266.81;;;-0.40;63.94
5651;BME280;40241;52.684;9.758;2023-12-04T05:25:00;101258.34;;;-0.42;63.89
5651;BME280;40241;52.684;9.758;2023-12-04T05:27:25;101248.97;;;-0.41;63.87
5651;BME280;40241;52.684;9.758;2023-12-04T05:29:50;101244.97;;;-0.37;63.76
5651;BME280;40241;52.684;9.758;2023-12-04T05:32:16;101253.56;;;-0.38;63.86
5651;BME280;40241;52.684;9.758;2023-12-04T05:34:42;101248.47;;;-0.36;63.76
5651;BME280;40241;52.684;9.758;2023-12-04T05:37:07;101242.69;;;-0.38;63.76
5651;BME280;40241;52.684;9.758;2023-12-04T05:39:32;101236.81;;;-0.37;63.72
5651;BME280;40241;52.684;9.758;2023-12-04T05:41:58;101232.94;;;-0.36;63.91
5651;BME280;40241;52.684;9.758;2023-12-04T05:44:23;101232.16;;;-0.36;63.66
5651;BME280;40241;52.684;9.758;2023-12-04T05:46:48;101223.34;;;-0.40;63.65
5651;BME280;40241;52.684;9.758;2023-12-04T05:49:14;101233.09;;;-0.43;63.84
5651;BME280;40241;52.684;9.758;2023-12-04T05:51:39;101228.44;;;-0.42;63.96
5651;BME280;40241;52.684;9.758;2023-12-04T05:54:04;101228.78;;;-0.40;63.88
5651;BME280;40241;52.684;9.758;2023-12-04T05:56:30;101228.34;;;-0.39;63.67
5651;BME280;40241;52.684;9.758;2023-12-04T05:58:55;101225.19;;;-0.37;63.70
5651;BME280;40241;52.684;9.758;2023-12-04T06:01:21;101236.16;;;-0.41;63.75
5651;BME280;40241;52.684;9.758;2023-12-04T06:03:46;101225.94;;;-0.37;63.71
5651;BME280;40241;52.684;9.758;2023-12-04T06:06:11;101227.91;;;-0.37;63.77
5651;BME280;40241;52.684;9.758;2023-12-04T06:08:37;101226.72;;;-0.36;63.90
5651;BME280;40241;52.684;9.758;2023-12-04T06:11:02;101232.16;;;-0.36;63.81
5651;BME280;40241;52.684;9.758;2023-12-04T06:13:28;101211.19;;;-0.36;63.79
5651;BME280;40241;52.684;9.758;2023-12-04T06:15:53;101211.19;;;-0.36;63.76
5651;BME280;40241;52.684;9.758;2023-12-04T06:18:18;101206.84;;;-0.33;63.68
5651;BME280;40241;52.684;9.758;2023-12-04T06:20:45;101202.59;;;-0.34;63.66
5651;BME280;40241;52.684;9.758;2023-12-04T06:23:11;101205.97;;;-0.30;63.78
5651;BME280;40241;52.684;9.758;2023-12-04T06:25:37;101202.06;;;-0.29;63.78
5651;BME280;40241;52.684;9.758;2023-12-04T06:28:04;101196.66;;;-0.29;63.61
5651;BME280;40241;52.684;9.758;2023-12-04T06:30:29;101191.94;;;-0.29;63.82
5651;BME280;40241;52.684;9.758;2023-12-04T06:32:55;101202.81;;;-0.29;63.66
5651;BME280;40241;52.684;9.758;2023-12-04T06:35:21;101191.94;;;-0.29;63.82
5651;BME280;40241;52.684;9.758;2023-12-04T06:37:48;101201.31;;;-0.30;63.63
5651;BME280;40241;52.684;9.758;2023-12-04T06:40:14;101202.81;;;-0.29;63.82
5651;BME280;40241;52.684;9.758;2023-12-04T06:42:39;101198.16;;;-0.28;63.82
5651;BME280;40241;52.684;9.758;2023-12-04T06:45:06;101202.75;;;-0.25;63.79
5651;BME280;40241;52.684;9.758;2023-12-04T06:47:34;101182.59;;;-0.28;63.84
5651;BME280;40241;52.684;9.758;2023-12-04T06:49:59;101195.69;;;-0.23;63.79
5651;BME280;40241;52.684;9.758;2023-12-04T06:52:25;101183.72;;;-0.25;63.72
5651;BME280;40241;52.684;9.758;2023-12-04T06:54:50;101187.63;;;-0.26;63.63
5651;BME280;40241;52.684;9.758;2023-12-04T06:57:15;101180.22;;;-0.26;63.78
5651;BME280;40241;52.684;9.758;2023-12-04T06:59:44;101184.03;;;-0.23;63.79
5651;BME280;40241;52.684;9.758;2023-12-04T07:02:09;101189.47;;;-0.23;63.95
5651;BME280;40241;52.684;9.758;2023-12-04T07:04:35;101177.41;;;-0.22;63.82
5651;BME280;40241;52.684;9.758;2023-12-04T07:07:00;101176.22;;;-0.21;63.82
5651;BME280;40241;52.684;9.758;2023-12-04T07:09:31;101188.63;;;-0.20;63.97
5651;BME280;40241;52.684;9.758;2023-12-04T07:11:56;101174.69;;;-0.22;63.82
5651;BME280;40241;52.684;9.758;2023-12-04T07:14:22;101184.81;;;-0.23;63.93
5651;BME280;40241;52.684;9.758;2023-12-04T07:16:47;101178.50;;;-0.20;63.89
5651;BME280;40241;52.684;9.758;2023-12-04T07:19:12;101186.31;;;-0.22;63.63
5651;BME280;40241;52.684;9.758;2023-12-04T07:21:40;101198.63;;;-0.17;64.32
5651;BME280;40241;52.684;9.758;2023-12-04T07:24:06;101178.75;;;-0.14;63.73
5651;BME280;40241;52.684;9.758;2023-12-04T07:26:33;101184.53;;;-0.12;63.68
5651;BME280;40241;52.684;9.758;2023-12-04T07:28:59;101190.75;;;-0.12;63.98
5651;BME280;40241;52.684;9.758;2023-12-04T07:31:24;101190.28;;;-0.10;63.75
5651;BME280;40241;52.684;9.758;2023-12-04T07:33:51;101198.78;;;-0.08;63.95
5651;BME280;40241;52.684;9.758;2023-12-04T07:36:16;101199.56;;;-0.08;63.91
5651;BME280;40241;52.684;9.758;2023-12-04T07:38:42;101195.63;;;-0.07;63.73
5651;BME280;40241;52.684;9.758;2023-12-04T07:41:07;101197.16;;;-0.06;63.86
5651;BME280;40241;52.684;9.758;2023-12-04T07:43:32;101186.28;;;-0.06;63.72
5651;BME280;40241;52.684;9.758;2023-12-04T07:45:58;101182.81;;;-0.06;63.80
5651;BME280;40241;52.684;9.758;2023-12-04T07:48:23;101187.81;;;-0.05;63.82
5651;BME280;40241;52.684;9.758;2023-12-04T07:50:48;101186.28;;;-0.06;63.46
5651;BME280;40241;52.684;9.758;2023-12-04T07:53:14;101179.66;;;-0.05;63.76
5651;BME280;40241;52.684;9.758;2023-12-04T07:55:39;101192.06;;;-0.04;63.67
5651;BME280;40241;52.684;9.758;2023-12-04T07:58:04;101173.34;;;-0.02;63.59
5651;BME280;40241;52.684;9.758;2023-12-04T08:00:30;101176.50;;;-0.03;63.31
5651;BME280;40241;52.684;9.758;2023-12-04T08:02:55;101175.31;;;-0.02;63.60
5651;BME280;40241;52.684;9.758;2023-12-04T08:05:21;101174.00;;;0.02;63.62
5651;BME280;40241;52.684;9.758;2023-12-04T08:07:47;101174.34;;;0.04;63.52
5651;BME280;40241;52.684;9.758;2023-12-04T08:10:12;101160.75;;;0.04;63.42
5651;BME280;40241;52.684;9.758;2023-12-04T08:12:37;101169.69;;;0.05;63.73
5651;BME280;40241;52.684;9.758;2023-12-04T08:15:04;101175.78;;;0.09;63.51
5651;BME280;40241;52.684;9.758;2023-12-04T08:17:30;101166.75;;;0.12;63.59
5651;BME280;40241;52.684;9.758;2023-12-04T08:19:55;101159.69;;;0.14;63.46
5651;BME280;40241;52.684;9.758;2023-12-04T08:22:21;101175.91;;;0.18;63.07
5651;BME280;40241;52.684;9.758;2023-12-04T08:24:46;101173.97;;;0.18;63.43
5651;BME280;40241;52.684;9.758;2023-12-04T08:27:11;101172.75;;;0.19;63.50
5651;BME280;40241;52.684;9.758;2023-12-04T08:29:39;101173.06;;;0.21;63.58
5651;BME280;40241;52.684;9.758;2023-12-04T08:32:04;101165.25;;;0.23;63.70
5651;BME280;40241;52.684;9.758;2023-12-04T08:34:30;101172.13;;;0.28;63.35
5651;BME280;40241;52.684;9.758;2023-12-04T08:36:56;101168.22;;;0.29;63.41
5651;BME280;40241;52.684;9.758;2023-12-04T08:39:21;101160.69;;;0.33;62.96
5651;BME280;40241;52.684;9.758;2023-12-04T08:41:47;101158.44;;;0.32;63.01
5651;BME280;40241;52.684;9.758;2023-12-04T08:44:13;101154.94;;;0.31;63.37
5651;BME280;40241;52.684;9.758;2023-12-04T08:46:38;101162.56;;;0.36;63.61
5651;BME280;40241;52.684;9.758;2023-12-04T08:49:05;101155.06;;;0.40;63.25
5651;BME280;40241;52.684;9.758;2023-12-04T08:51:30;101154.19;;;0.43;63.24
5651;BME280;40241;52.684;9.758;2023-12-04T08:53:56;101162.69;;;0.45;63.25
5651;BME280;40241;52.684;9.758;2023-12-04T08:56:21;101182.50;;;0.46;63.07
5651;BME280;40241;52.684;9.758;2023-12-04T08:58:46;101163.34;;;0.49;62.95
5651;BME280;40241;52.684;9.758;2023-12-04T09:01:12;101155.06;;;0.53;63.20
5651;BME280;40241;52.684;9.758;2023-12-04T09:03:37;101154.28;;;0.52;62.90
5651;BME280;40241;52.684;9.758;2023-12-04T09:06:02;101150.38;;;0.53;62.84
5651;BME280;40241;52.684;9.758;2023-12-04T09:08:28;101153.31;;;0.59;63.08
5651;BME280;40241;52.684;9.758;2023-12-04T09:10:53;101156.72;;;0.63;62.70
5651;BME280;40241;52.684;9.758;2023-12-04T09:13:19;101148.88;;;0.65;62.87
5651;BME280;40241;52.684;9.758;2023-12-04T09:15:44;101153.56;;;0.64;62.85
5651;BME280;40241;52.684;9.758;2023-12-04T09:18:09;101139.06;;;0.67;62.95
5651;BME280;40241;52.684;9.758;2023-12-04T09:20:35;101143.63;;;0.70;62.89
5651;BME280;40241;52.684;9.758;2023-12-04T09:23:01;101150.63;;;0.71;63.07
5651;BME280;40241;52.684;9.758;2023-12-04T09:25:26;101152.03;;;0.76;62.85
5651;BME280;40241;52.684;9.758;2023-12-04T09:27:51;101143.41;;;0.77;62.84
5651;BME280;40241;52.684;9.758;2023-12-04T09:30:17;101132.84;;;0.79;62.58
5651;BME280;40241;52.684;9.758;2023-12-04T09:32:43;101143.75;;;0.79;62.63
5651;BME280;40241;52.684;9.758;2023-12-04T09:35:09;101138.63;;;0.81;62.73
5651;BME280;40241;52.684;9.758;2023-12-04T09:37:34;101134.25;;;0.84;62.71
5651;BME280;40241;52.684;9.758;2023-12-04T09:40:00;101131.75;;;0.89;62.63
5651;BME280;40241;52.684;9.758;2023-12-04T09:42:25;101134.03;;;0.91;62.87
5651;BME280;40241;52.684;9.758;2023-12-04T09:44:52;101125.63;;;0.98;62.64
5651;BME280;40241;52.684;9.758;2023-12-04T09:47:18;101137.59;;;1.00;62.45
5651;BME280;40241;52.684;9.758;2023-12-04T09:49:44;101126.72;;;1.00;62.58
5651;BME280;40241;52.684;9.758;2023-12-04T09:52:10;101130.53;;;1.03;62.41
5651;BME280;40241;52.684;9.758;2023-12-04T09:54:37;101122.81;;;1.01;62.47
5651;BME280;40241;52.684;9.758;2023-12-04T09:57:03;101139.16;;;1.01;62.41
5651;BME280;40241;52.684;9.758;2023-12-04T09:59:30;101125.53;;;1.01;62.42
5651;BME280;40241;52.684;9.758;2023-12-04T10:01:57;101123.66;;;0.98;62.44
5651;BME280;40241;52.684;9.758;2023-12-04T10:04:23;101112.00;;;0.98;62.69
5651;BME280;40241;52.684;9.758;2023-12-04T10:06:52;101107.00;;;0.96;62.45
5651;BME280;40241;52.684;9.758;2023-12-04T10:09:18;101115.19;;;0.96;62.61
5651;BME280;40241;52.684;9.758;2023-12-04T10:11:46;101103.50;;;0.96;62.49
5651;BME280;40241;52.684;9.758;2023-12-04T10:14:17;101104.28;;;0.96;62.51
5651;BME280;40241;52.684;9.758;2023-12-04T10:16:43;101090.97;;;0.98;62.55
5651;BME280;40241;52.684;9.758;2023-12-04T10:21:42;101089.88;;;1.09;62.54
5651;BME280;40241;52.684;9.758;2023-12-04T10:24:07;101075.34;;;1.12;62.65
5651;BME280;40241;52.684;9.758;2023-12-04T10:26:33;101081.91;;;1.14;62.25
5651;BME280;40241;52.684;9.758;2023-12-04T10:29:02;101086.47;;;1.17;62.04
5651;BME280;40241;52.684;9.758;2023-12-04T10:31:34;101074.34;;;1.18;62.18
5651;BME280;40241;52.684;9.758;2023-12-04T10:34:02;101082.22;;;1.16;62.17
5651;BME280;40241;52.684;9.758;2023-12-04T10:36:28;101068.47;;;1.20;62.46
5651;BME280;40241;52.684;9.758;2023-12-04T10:38:59;101067.91;;;1.25;62.41
5651;BME280;40241;52.684;9.758;2023-12-04T10:41:25;101054.03;;;1.32;62.64
5651;BME280;40241;52.684;9.758;2023-12-04T10:43:51;101054.81;;;1.32;62.15
5651;BME280;40241;52.684;9.758;2023-12-04T10:46:17;101052.72;;;1.36;62.15
5651;BME280;40241;52.684;9.758;2023-12-04T10:48:44;101039.41;;;1.38;62.08
5651;BME280;40241;52.684;9.758;2023-12-04T10:51:11;101046.25;;;1.43;62.09
5651;BME280;40241;52.684;9.758;2023-12-04T10:53:37;101054.59;;;1.48;62.06
5651;BME280;40241;52.684;9.758;2023-12-04T10:56:07;101045.56;;;1.51;61.98
5651;BME280;40241;52.684;9.758;2023-12-04T10:58:34;101033.09;;;1.50;61.85
5651;BME280;40241;52.684;9.758;2023-12-04T11:01:01;101040.41;;;1.53;62.06
5651;BME280;40241;52.684;9.758;2023-12-04T11:03:41;101030.03;;;1.61;61.57
5651;BME280;40241;52.684;9.758;2023-12-04T11:06:10;101035.03;;;1.62;61.92
5651;BME280;40241;52.684;9.758;2023-12-04T11:08:36;101028.69;;;1.65;61.71
5651;BME280;40241;52.684;9.758;2023-12-04T11:11:05;101016.41;;;1.70;61.77
5651;BME280;40241;52.684;9.758;2023-12-04T11:13:37;101022.06;;;1.75;61.99
5651;BME280;40241;52.684;9.758;2023-12-04T11:16:24;101028.28;;;1.76;61.26
5651;BME280;40241;52.684;9.758;2023-12-04T11:19:00;101027.06;;;1.77;61.47
5651;BME280;40241;52.684;9.758;2023-12-04T11:21:28;101028.28;;;1.76;61.66
5651;BME280;40241;52.684;9.758;2023-12-04T11:23:54;101007.09;;;1.80;61.55
5651;BME280;40241;52.684;9.758;2023-12-04T11:26:20;101014.06;;;1.81;61.52
5651;BME280;40241;52.684;9.758;2023-12-04T11:28:47;101011.78;;;1.79;61.62
5651;BME280;40241;52.684;9.758;2023-12-04T11:31:13;101003.03;;;1.85;61.34
5651;BME280;40241;52.684;9.758;2023-12-04T11:33:40;100999.84;;;1.86;61.42
5651;BME280;40241;52.684;9.758;2023-12-04T11:36:12;101008.16;;;1.82;60.99
5651;BME280;40241;52.684;9.758;2023-12-04T11:38:44;100993.75;;;1.82;61.13
5651;BME280;40241;52.684;9.758;2023-12-04T11:41:23;100988.31;;;1.82;61.11
5651;BME280;40241;52.684;9.758;2023-12-04T11:43:50;100986.47;;;1.79;61.26
5651;BME280;40241;52.684;9.758;2023-12-04T11:46:23;100983.13;;;1.75;61.06
5651;BME280;40241;52.684;9.758;2023-12-04T11:49:35;100982.94;;;1.69;60.93
5651;BME280;40241;52.684;9.758;2023-12-04T11:54:07;100974.63;;;1.73;61.35
5651;BME280;40241;52.684;9.758;2023-12-04T11:56:32;100971.44;;;1.74;61.27
5651;BME280;40241;52.684;9.758;2023-12-04T11:59:05;100967.53;;;1.75;61.24
5651;BME280;40241;52.684;9.758;2023-12-04T12:01:36;100962.81;;;1.76;60.99
5651;BME280;40241;52.684;9.758;2023-12-04T12:04:05;100961.59;;;1.77;61.14
5651;BME280;40241;52.684;9.758;2023-12-04T12:06:30;100950.53;;;1.71;61.09
5651;BME280;40241;52.684;9.758;2023-12-04T12:08:56;100953.13;;;1.75;61.38
5651;BME280;40241;52.684;9.758;2023-12-04T12:11:29;100949.63;;;1.74;60.83
5651;BME280;40241;52.684;9.758;2023-12-04T12:13:54;100954.28;;;1.65;61.18
5651;BME280;40241;52.684;9.758;2023-12-04T12:16:19;100941.41;;;1.65;61.48
5651;BME280;40241;52.684;9.758;2023-12-04T12:18:46;100953.97;;;1.63;61.22
5651;BME280;40241;52.684;9.758;2023-12-04T12:21:12;100938.69;;;1.65;61.28
5651;BME280;40241;52.684;9.758;2023-12-04T12:23:37;100928.97;;;1.64;61.36
5651;BME280;40241;52.684;9.758;2023-12-04T12:26:02;100926.88;;;1.68;61.45
5651;BME280;40241;52.684;9.758;2023-12-04T12:28:28;100922.19;;;1.69;60.93
5651;BME280;40241;52.684;9.758;2023-12-04T12:30:54;100908.69;;;1.65;61.11
5651;BME280;40241;52.684;9.758;2023-12-04T12:33:20;100917.75;;;1.62;60.97
5651;BME280;40241;52.684;9.758;2023-12-04T12:35:47;100914.28;;;1.62;61.39
5651;BME280;40241;52.684;9.758;2023-12-04T12:38:13;100918.84;;;1.65;61.24
5651;BME280;40241;52.684;9.758;2023-12-04T12:40:38;100912.63;;;1.64;61.13
5651;BME280;40241;52.684;9.758;2023-12-04T12:43:08;100916.88;;;1.65;60.99
5651;BME280;40241;52.684;9.758;2023-12-04T12:45:44;100909.75;;;1.68;60.80
5651;BME280;40241;52.684;9.758;2023-12-04T12:48:17;100914.59;;;1.64;61.36
5651;BME280;40241;52.684;9.758;2023-12-04T12:50:43;100909.00;;;1.67;61.19
5651;BME280;40241;52.684;9.758;2023-12-04T12:53:10;100905.50;;;1.67;61.21
5651;BME280;40241;52.684;9.758;2023-12-04T12:55:43;100886.53;;;1.63;60.59
5651;BME280;40241;52.684;9.758;2023-12-04T12:58:11;100888.84;;;1.65;61.17
5651;BME280;40241;52.684;9.758;2023-12-04T13:00:41;100895.50;;;1.64;61.27
5651;BME280;40241;52.684;9.758;2023-12-04T13:03:18;100882.31;;;1.62;61.02
5651;BME280;40241;52.684;9.758;2023-12-04T13:05:43;100887.47;;;1.60;61.21